Time;durP1;ratioP1;P1;durP2;ratioP2;P2;SDS_P1;SDS_P2;PMS_P1;PMS_P2;Temp;Humidity;BMP_temperature;BMP_pressure;BME280_temperature;BME280_humidity;BME280_pressure;Samples;Min_cycle;Max_cycle;Signal;HPM_P1;HPM_P2
2021/08/07 00:01:50;;;;;;;;;;;;;;;;;;;;;
2021/08/07 00:09:14;;;;;;;11.00;2.47;;;;;;;15.62;81.01;100462.28;4921627;29;20099;-88
2021/08/07 00:23:00;;;;;;;11.63;2.65;;;;;;;15.41;81.78;100460.72;4803638;29;20039;-86
2021/08/07 00:47:32;;;;;;;;;;;;;;;;;;;;;
2021/08/07 01:58:31;;;;;;;;;;;;;;;;;;;;;
2021/08/07 07:15:59;;;;;;;;;;;;;;;;;;;;;
2021/08/07 07:50:44;;;;;;;6.75;1.77;;;;;;;18.04;76.45;100348.59;5873700;24;20025;-85
2021/08/07 08:01:03;;;;;;;;;;;;;;;;;;;;;
2021/08/07 08:04:05;;;;;;;6.85;2.00;;;;;;;18.46;77.62;100332.56;6040468;23;20019;-82
2021/08/07 08:06:37;;;;;;;7.47;1.80;;;;;;;18.54;75.48;100335.91;6107286;23;20437;-81
2021/08/07 08:09:41;;;;;;;4.03;1.77;;;;;;;18.43;76.25;100329.94;6189006;23;20013;-91
2021/08/07 08:13:08;;;;;;;5.43;2.08;;;;;;;18.54;74.75;100330.59;6190263;23;20009;-84
2021/08/07 08:18:36;;;;;;;6.40;2.28;;;;;;;18.61;74.91;100331.31;6163884;23;20083;-84
2021/08/07 08:21:54;;;;;;;5.03;1.98;;;;;;;18.78;75.34;100330.88;6189103;23;20333;-87
2021/08/07 08:25:35;;;;;;;;;;;;;;;;;;;;;
2021/08/07 11:21:07;;;;;;;4.65;1.25;;;;;;;26.02;40.11;100091.34;5011896;28;20278;-87
2021/08/07 11:24:24;;;;;;;;;;;;;;;;;;;;;
2021/08/07 11:42:16;;;;;;;;;;;;;;;;;;;;;
2021/08/07 11:45:40;;;;;;;6.32;1.33;;;;;;;26.68;36.48;100054.94;4717535;30;20110;-87
2021/08/07 11:59:41;;;;;;;;;;;;;;;;;;;;;
2021/08/07 12:14:09;;;;;;;5.00;1.33;;;;;;;22.39;48.01;100063.50;4773543;29;20142;-86
2021/08/07 12:17:35;;;;;;;;;;;;;;;;;;;;;
2021/08/07 12:50:01;;;;;;;;;;;;;;;;;;;;;
2021/08/07 13:10:42;;;;;;;3.60;1.08;;;;;;;24.16;44.40;100029.03;4737228;30;20559;-84
2021/08/07 13:14:10;;;;;;;4.75;1.15;;;;;;;23.85;47.47;100038.66;4752638;30;20080;-84
2021/08/07 13:17:08;;;;;;;;;;;;;;;;;;;;;
2021/08/07 13:20:30;;;;;;;6.93;1.20;;;;;;;24.51;42.75;100022.66;4766120;29;20414;-88
2021/08/07 13:26:15;;;;;;;3.92;1.10;;;;;;;23.83;44.38;100032.47;4798716;29;20519;-82
2021/08/07 13:29:39;;;;;;;6.88;1.20;;;;;;;24.05;45.20;100031.38;4794205;29;20043;-87
2021/08/07 13:35:51;;;;;;;3.63;0.98;;;;;;;24.11;44.66;100017.63;4851369;29;19912;-86
2021/08/07 13:39:03;;;;;;;;;;;;;;;;;;;;;
2021/08/07 13:42:27;;;;;;;4.05;1.05;;;;;;;23.18;45.97;100013.38;4864667;29;20147;-85
2021/08/07 13:45:50;;;;;;;4.60;1.15;;;;;;;23.53;45.25;100016.13;4900723;29;20044;-88
2021/08/07 13:49:14;;;;;;;4.22;0.88;;;;;;;24.59;45.10;100009.66;4845480;29;20072;-84
2021/08/07 13:52:37;;;;;;;;;;;;;;;;;;;;;
2021/08/07 13:56:26;;;;;;;4.10;0.90;;;;;;;23.49;46.16;100001.97;4837796;29;20142;-81
2021/08/07 14:03:15;;;;;;;;;;;;;;;;;;;;;
2021/08/07 14:16:11;;;;;;;4.63;1.40;;;;;;;23.10;48.07;99984.22;4998720;28;20034;-85
2021/08/07 14:19:01;;;;;;;5.57;1.33;;;;;;;22.82;47.30;99985.56;5015173;28;20117;-86
2021/08/07 14:21:58;;;;;;;3.65;0.90;;;;;;;22.48;46.69;99975.59;5024937;28;20118;-83
2021/08/07 14:25:21;;;;;;;;;;;;;;;;;;;;;
2021/08/07 14:28:19;;;;;;;2.97;1.17;;;;;;;22.15;48.48;99990.44;4997645;28;20034;-86
2021/08/07 14:31:11;;;;;;;5.25;1.10;;;;;;;22.13;51.16;99994.97;4958852;28;20039;-86
2021/08/07 14:34:09;;;;;;;5.22;1.10;;;;;;;22.30;49.93;99986.19;5000513;28;20062;-86
2021/08/07 14:37:07;;;;;;;;;;;;;;;;;;;;;
2021/08/07 14:39:47;;;;;;;3.38;1.02;;;;;;;22.53;51.32;100001.22;4994552;28;20549;-86
2021/08/07 14:43:10;;;;;;;;;;;;;;;;;;;;;
2021/08/07 14:49:13;;;;;;;3.90;1.15;;;;;;;21.75;51.31;100010.94;5019222;28;20037;-86
2021/08/07 14:52:09;;;;;;;2.97;1.58;;;;;;;21.29;52.30;100020.88;5018350;28;20022;-82
2021/08/07 14:54:42;;;;;;;3.55;1.10;;;;;;;21.03;54.03;100030.84;5019565;28;20090;-82
2021/08/07 14:57:16;;;;;;;3.60;1.17;;;;;;;20.67;54.69;100032.19;5019215;28;20050;-90
2021/08/07 15:00:01;;;;;;;4.15;1.00;;;;;;;20.16;64.97;100043.91;5015571;28;20129;-82
2021/08/07 15:02:27;;;;;;;7.70;1.33;;;;;;;19.57;63.13;100045.00;5010384;28;20030;-84
2021/08/07 15:04:52;;;;;;;2.30;1.10;;;;;;;19.09;66.75;100055.44;5006695;28;20024;-86
2021/08/07 15:07:18;;;;;;;5.68;1.40;;;;;;;18.67;68.74;100063.78;4995973;28;20027;-84
2021/08/07 15:09:44;;;;;;;5.05;1.80;;;;;;;18.26;70.16;100079.13;4994641;28;20033;-82
2021/08/07 15:12:11;;;;;;;4.97;1.50;;;;;;;17.92;74.29;100112.88;4995559;28;20047;-83
2021/08/07 15:14:57;;;;;;;8.52;2.00;;;;;;;17.45;78.38;100106.91;4995755;28;20104;-79
2021/08/07 15:17:22;;;;;;;4.95;2.55;;;;;;;17.14;81.26;100110.25;4995409;28;20181;-78
2021/08/07 15:19:48;;;;;;;4.97;1.50;;;;;;;17.03;80.76;100105.19;4996352;28;20062;-82
2021/08/07 15:22:13;;;;;;;5.43;1.92;;;;;;;16.97;82.72;100102.66;4978104;28;20485;-84
2021/08/07 15:24:39;;;;;;;4.32;1.67;;;;;;;16.94;83.29;100114.25;4996352;28;20030;-82
2021/08/07 15:27:04;;;;;;;7.18;1.73;;;;;;;16.94;82.46;100108.03;4995762;28;20026;-82
2021/08/07 15:29:29;;;;;;;8.13;2.28;;;;;;;16.96;83.02;100109.75;5002941;28;20037;-82
2021/08/07 15:31:55;;;;;;;7.47;2.00;;;;;;;17.01;84.78;100117.63;5014372;28;20116;-83
2021/08/07 15:34:40;;;;;;;17.17;3.00;;;;;;;16.89;86.04;100121.44;5016278;28;20101;-82
2021/08/07 15:37:08;;;;;;;15.10;3.05;;;;;;;16.72;86.96;100116.44;5014967;28;20028;-86
2021/08/07 15:40:24;;;;;;;;;;;;;;;;;;;;;
2021/08/07 15:42:59;;;;;;;2.55;1.05;;;;;;;16.27;82.94;100084.59;5017492;28;20044;-86
2021/08/07 15:45:25;;;;;;;4.43;1.13;;;;;;;15.95;83.54;100070.13;5012761;28;20081;-83
2021/08/07 15:47:50;;;;;;;8.85;1.13;;;;;;;15.89;84.12;100064.94;5007995;28;20030;-79
2021/08/07 15:50:16;;;;;;;3.90;1.08;;;;;;;15.90;85.06;100066.66;5014839;28;20030;-82
2021/08/07 15:52:41;;;;;;;2.22;1.05;;;;;;;15.90;84.31;100062.25;4997909;28;20034;-81
2021/08/07 15:55:27;;;;;;;4.43;1.23;;;;;;;15.93;85.46;100062.19;4996665;28;20026;-81
2021/08/07 15:57:52;;;;;;;5.13;1.75;;;;;;;15.91;87.29;100076.38;4996637;28;20045;-82
2021/08/07 16:00:18;;;;;;;4.68;1.23;;;;;;;15.89;88.27;100080.84;4981767;28;20030;-82
2021/08/07 16:03:03;;;;;;;8.40;1.20;;;;;;;15.88;88.80;100069.34;4998710;28;20057;-83
2021/08/07 16:05:28;;;;;;;3.13;1.20;;;;;;;15.88;88.40;100074.66;4999006;28;20090;-87
2021/08/07 16:07:54;;;;;;;2.60;0.82;;;;;;;15.81;87.56;100065.94;4999476;28;20046;-84
2021/08/07 16:10:21;;;;;;;5.90;1.23;;;;;;;15.77;88.69;100074.81;4997625;28;20046;-79
2021/08/07 16:12:46;;;;;;;3.30;1.15;;;;;;;15.78;89.88;100081.00;4999945;28;20034;-81
2021/08/07 16:15:12;;;;;;;3.58;0.90;;;;;;;15.81;88.10;100073.88;4998923;28;20500;-82
2021/08/07 16:17:37;;;;;;;1.33;1.05;;;;;;;15.80;88.58;100077.47;5002996;28;20168;-82
2021/08/07 16:20:23;;;;;;;2.83;1.30;;;;;;;15.72;89.76;100100.56;5010767;28;20046;-84
2021/08/07 16:22:49;;;;;;;2.03;1.00;;;;;;;15.66;89.26;100096.22;5004425;28;20516;-81
2021/08/07 16:25:14;;;;;;;3.22;1.10;;;;;;;15.63;89.54;100095.41;5014111;28;20033;-82
2021/08/07 16:27:42;;;;;;;2.13;1.20;;;;;;;15.61;89.74;100099.84;5036512;28;20105;-85
2021/08/07 16:30:08;;;;;;;2.63;1.08;;;;;;;15.62;89.90;100096.28;5027295;28;20033;-77
2021/08/07 16:32:54;;;;;;;3.53;1.40;;;;;;;15.67;90.34;100091.78;5017275;28;20492;-82
2021/08/07 16:35:19;;;;;;;2.20;1.30;;;;;;;15.75;90.55;100095.19;5018316;28;20034;-81
2021/08/07 16:37:45;;;;;;;6.25;1.58;;;;;;;15.84;90.50;100095.06;5032984;28;20033;-80
2021/08/07 16:40:11;;;;;;;4.93;1.33;;;;;;;15.94;90.23;100105.50;5019454;28;20080;-85
2021/08/07 16:42:36;;;;;;;3.42;1.50;;;;;;;15.95;89.83;100101.97;5009728;28;20034;-82
2021/08/07 16:45:29;;;;;;;10.05;2.30;;;;;;;15.95;89.89;100097.53;5002055;28;20661;-84
2021/08/07 16:48:37;;;;;;;4.40;2.13;;;;;;;15.90;90.07;100087.88;4988004;28;20030;-90
2021/08/07 16:52:04;;;;;;;5.90;2.40;;;;;;;15.87;90.59;100078.22;4998314;28;20034;-85
2021/08/07 16:54:49;;;;;;;9.43;2.65;;;;;;;15.92;92.21;100080.78;5003626;28;20055;-88
2021/08/07 16:57:15;;;;;;;5.75;2.10;;;;;;;15.99;91.88;100082.44;5007491;28;20026;-85
2021/08/07 16:59:41;;;;;;;6.25;2.20;;;;;;;16.00;91.54;100092.13;5021772;28;20048;-80
2021/08/07 17:02:07;;;;;;;6.72;2.00;;;;;;;16.00;91.32;100089.50;5019540;28;20034;-80
2021/08/07 17:04:34;;;;;;;4.68;2.13;;;;;;;16.05;91.23;100092.94;5019258;28;20033;-82
2021/08/07 17:07:39;;;;;;;5.85;1.90;;;;;;;16.08;90.91;100076.09;5018302;28;20025;-84
2021/08/07 17:10:05;;;;;;;4.63;1.83;;;;;;;16.09;89.75;100084.03;5015939;28;20049;-82
2021/08/07 17:13:10;;;;;;;3.63;1.85;;;;;;;16.04;88.73;100072.59;5018253;28;20108;-84
2021/08/07 17:15:37;;;;;;;5.40;1.20;;;;;;;16.02;89.27;100074.44;5014992;28;20037;-86
2021/08/07 17:18:05;;;;;;;2.88;1.10;;;;;;;16.01;88.97;100085.94;5017774;28;20389;-85
2021/08/07 17:20:31;;;;;;;3.33;1.40;;;;;;;15.98;90.00;100080.69;5000359;28;20515;-78
2021/08/07 17:23:17;;;;;;;3.75;1.55;;;;;;;15.94;90.18;100084.28;5017234;28;20038;-82
2021/08/07 17:25:42;;;;;;;2.15;1.20;;;;;;;15.92;89.66;100086.09;5016196;28;20113;-82
2021/08/07 17:28:08;;;;;;;3.83;1.60;;;;;;;15.90;90.21;100087.88;5017620;28;20052;-84
2021/08/07 17:30:38;;;;;;;2.08;1.30;;;;;;;15.84;90.40;100084.47;5010566;28;20056;-85
2021/08/07 17:33:06;;;;;;;5.15;1.95;;;;;;;15.79;91.15;100082.72;4976992;28;20031;-83
2021/08/07 17:35:31;;;;;;;2.20;1.50;;;;;;;15.78;90.85;100081.00;4997373;28;20555;-80
2021/08/07 17:37:56;;;;;;;4.18;1.70;;;;;;;15.71;91.42;100085.53;4999344;28;20023;-81
2021/08/07 17:40:22;;;;;;;2.88;1.33;;;;;;;15.68;91.78;100083.81;4997592;28;20353;-83
2021/08/07 17:42:49;;;;;;;5.10;1.90;;;;;;;15.67;91.77;100078.53;4979516;28;20042;-80
2021/08/07 17:45:34;;;;;;;6.32;1.80;;;;;;;15.64;91.84;100082.13;4996213;28;20030;-79
2021/08/07 17:48:03;;;;;;;3.80;2.00;;;;;;;15.60;91.33;100082.16;4995589;28;20030;-80
2021/08/07 17:50:28;;;;;;;3.40;1.63;;;;;;;15.60;91.37;100090.13;4995501;28;20068;-87
2021/08/07 17:53:14;;;;;;;6.15;1.83;;;;;;;15.55;91.12;100087.56;4997251;28;20485;-85
2021/08/07 17:55:59;;;;;;;3.70;1.70;;;;;;;15.50;91.22;100092.06;4996988;28;20090;-91
2021/08/07 17:58:26;;;;;;;4.30;1.90;;;;;;;15.45;90.96;100092.16;4987343;28;20381;-81
2021/08/07 18:00:51;;;;;;;5.47;1.95;;;;;;;15.42;91.05;100097.47;5013773;28;20041;-87
2021/08/07 18:03:16;;;;;;;2.97;1.77;;;;;;;15.38;90.71;100090.47;5016900;28;20068;-85
2021/08/07 18:05:42;;;;;;;4.30;1.83;;;;;;;15.36;91.46;100105.53;5014474;28;20472;-84
2021/08/07 18:08:08;;;;;;;4.15;1.95;;;;;;;15.33;91.90;100105.59;4995786;28;20027;-84
2021/08/07 18:10:33;;;;;;;4.00;2.20;;;;;;;15.29;92.08;100101.22;4995736;28;20087;-84
2021/08/07 18:12:59;;;;;;;6.38;2.40;;;;;;;15.28;91.87;100091.53;4978325;28;20150;-83
2021/08/07 18:15:27;;;;;;;7.68;2.72;;;;;;;15.22;92.19;100099.56;4997258;28;20026;-82
2021/08/07 18:17:53;;;;;;;4.88;2.33;;;;;;;15.21;92.70;100111.94;4995653;28;20025;-79
2021/08/07 18:20:19;;;;;;;3.88;2.40;;;;;;;15.16;92.90;100111.97;4994843;28;20046;-81
2021/08/07 18:22:45;;;;;;;5.07;2.47;;;;;;;15.16;93.24;100122.59;4995181;28;20034;-85
2021/08/07 18:25:12;;;;;;;8.25;2.30;;;;;;;15.16;93.12;100114.63;5009872;28;20041;-86
2021/08/07 18:27:39;;;;;;;9.13;2.75;;;;;;;15.22;93.75;100118.09;5016019;28;20024;-83
2021/08/07 18:30:25;;;;;;;6.53;2.20;;;;;;;15.24;93.16;100111.03;5015676;28;20026;-83
2021/08/07 18:32:50;;;;;;;5.20;2.13;;;;;;;15.22;92.74;100110.16;5009461;28;20121;-78
2021/08/07 18:35:15;;;;;;;5.53;2.00;;;;;;;15.21;92.58;100108.44;4994981;28;20054;-82
2021/08/07 18:37:41;;;;;;;4.03;2.20;;;;;;;15.18;92.63;100104.91;4992867;28;20414;-85
2021/08/07 18:40:07;;;;;;;3.30;2.03;;;;;;;15.16;92.54;100089.91;4998761;28;20037;-84
2021/08/07 18:42:33;;;;;;;5.47;2.40;;;;;;;15.10;92.76;100101.50;5014560;28;20022;-81
2021/08/07 18:44:58;;;;;;;6.63;2.50;;;;;;;15.10;93.13;100095.31;4997379;28;20033;-88
2021/08/07 18:47:24;;;;;;;3.60;2.20;;;;;;;15.06;93.37;100104.22;5014506;28;20421;-83
2021/08/07 18:49:49;;;;;;;3.63;2.22;;;;;;;15.04;93.66;100096.25;5013885;28;20026;-84
2021/08/07 18:52:15;;;;;;;5.43;2.10;;;;;;;15.00;93.67;100103.41;5014639;28;20028;-86
2021/08/07 18:54:40;;;;;;;5.13;2.38;;;;;;;14.99;93.64;100093.69;5001143;28;20030;-84
2021/08/07 18:57:06;;;;;;;4.45;2.13;;;;;;;15.00;93.59;100097.19;5021519;28;20035;-84
2021/08/07 18:59:31;;;;;;;4.63;1.85;;;;;;;14.98;93.41;100091.06;5011812;28;20456;-84
2021/08/07 19:01:57;;;;;;;3.85;1.75;;;;;;;14.98;93.43;100091.94;5014999;28;20033;-83
2021/08/07 19:04:22;;;;;;;3.35;1.92;;;;;;;14.95;93.50;100102.56;5014373;28;20026;-81
2021/08/07 19:06:48;;;;;;;1.85;1.73;;;;;;;14.94;93.21;100095.53;5008750;28;20489;-81
2021/08/07 19:09:13;;;;;;;6.03;2.10;;;;;;;14.93;93.04;100101.69;5005724;28;20034;-77
2021/08/07 19:11:39;;;;;;;4.30;1.80;;;;;;;14.91;93.07;100097.34;5005089;28;20097;-81
2021/08/07 19:14:05;;;;;;;3.28;1.80;;;;;;;14.89;93.21;100091.19;4992787;28;20072;-81
2021/08/07 19:16:31;;;;;;;4.00;1.52;;;;;;;14.84;93.07;100094.78;4995150;28;20026;-81
2021/08/07 19:18:56;;;;;;;3.15;1.90;;;;;;;14.82;93.14;100098.34;4994630;28;20412;-82
2021/08/07 19:21:21;;;;;;;3.78;1.95;;;;;;;14.79;93.47;100111.63;4995028;28;20019;-79
2021/08/07 19:23:47;;;;;;;3.60;1.65;;;;;;;14.75;93.57;100110.78;4995236;28;20030;-81
2021/08/07 19:26:13;;;;;;;5.38;2.00;;;;;;;14.75;93.80;100113.41;5009001;28;20075;-81
2021/08/07 19:28:40;;;;;;;8.07;2.05;;;;;;;14.71;94.03;100111.72;5018030;28;20496;-82
2021/08/07 19:31:05;;;;;;;4.90;1.80;;;;;;;14.70;93.82;100109.09;5012915;28;20070;-84
2021/08/07 19:33:31;;;;;;;2.55;1.80;;;;;;;14.69;93.79;100105.56;5017603;28;20569;-79
2021/08/07 19:35:57;;;;;;;5.40;1.65;;;;;;;14.66;93.85;100103.84;5000055;28;20030;-88
2021/08/07 19:38:22;;;;;;;6.28;1.70;;;;;;;14.66;93.77;100108.22;5017366;28;20137;-81
2021/08/07 19:40:48;;;;;;;4.22;2.03;;;;;;;14.65;93.79;100106.50;5001424;28;20473;-84
2021/08/07 19:43:13;;;;;;;4.50;2.15;;;;;;;14.66;93.86;100111.78;4999874;28;20026;-85
2021/08/07 19:45:59;;;;;;;7.93;2.40;;;;;;;14.66;94.13;100122.38;4998130;28;20436;-80
2021/08/07 19:48:24;;;;;;;3.85;2.08;;;;;;;14.66;94.31;100126.78;4998133;28;20045;-82
2021/08/07 19:50:53;;;;;;;3.00;2.13;;;;;;;14.64;94.20;100129.44;4997343;28;20497;-87
2021/08/07 19:53:18;;;;;;;5.28;2.22;;;;;;;14.63;94.47;100122.38;4997832;28;20133;-81
2021/08/07 19:55:44;;;;;;;6.10;2.40;;;;;;;14.65;94.28;100125.03;4997404;28;20106;-85
2021/08/07 19:58:09;;;;;;;5.28;1.98;;;;;;;14.67;94.12;100133.81;4998478;28;20364;-84
2021/08/07 20:00:35;;;;;;;7.82;2.88;;;;;;;14.67;94.22;100137.34;4999346;28;20038;-82
2021/08/07 20:03:00;;;;;;;2.90;1.95;;;;;;;14.65;94.37;100139.16;5009136;28;20033;-78
2021/08/07 20:05:26;;;;;;;5.50;2.92;;;;;;;14.66;94.21;100134.72;5012839;28;20519;-85
2021/08/07 20:07:51;;;;;;;8.07;2.20;;;;;;;14.67;94.10;100134.69;4998011;28;20026;-84
2021/08/07 20:10:17;;;;;;;6.75;2.60;;;;;;;14.69;94.31;100139.09;4998086;28;20510;-82
2021/08/07 20:12:42;;;;;;;5.35;2.58;;;;;;;14.69;94.36;100147.94;4997742;28;20053;-86
2021/08/07 20:15:12;;;;;;;6.28;2.60;;;;;;;14.71;94.37;100143.50;4997599;28;20075;-85
2021/08/07 20:17:37;;;;;;;4.90;2.53;;;;;;;14.73;94.24;100143.47;4997170;28;20031;-87
2021/08/07 20:20:05;;;;;;;6.15;2.33;;;;;;;14.73;94.18;100147.00;4997106;28;20092;-80
2021/08/07 20:22:30;;;;;;;5.25;2.60;;;;;;;14.76;93.93;100144.31;4997151;28;20076;-87
2021/08/07 20:24:56;;;;;;;7.18;2.60;;;;;;;14.76;93.70;100146.97;4996995;28;20058;-81
2021/08/07 20:27:21;;;;;;;6.90;2.17;;;;;;;14.75;93.94;100142.56;4997278;28;20022;-86
2021/08/07 20:29:47;;;;;;;5.85;1.90;;;;;;;14.75;93.42;100137.25;4996972;28;20939;-82
2021/08/07 20:32:12;;;;;;;7.15;2.55;;;;;;;14.74;93.53;100140.78;4997232;28;20026;-84
2021/08/07 20:34:46;;;;;;;7.18;2.40;;;;;;;14.74;93.28;100139.94;5009009;28;20080;-81
2021/08/07 20:37:13;;;;;;;4.97;2.60;;;;;;;14.73;93.28;100144.34;4997509;28;20493;-83
2021/08/07 20:39:39;;;;;;;6.90;2.25;;;;;;;14.76;92.98;100143.41;4997007;28;20466;-82
2021/08/07 20:42:04;;;;;;;4.25;2.28;;;;;;;14.74;93.23;100140.78;4996384;28;20025;-82
2021/08/07 20:44:30;;;;;;;5.15;2.70;;;;;;;14.74;93.34;100151.38;4997160;28;20373;-77
2021/08/07 20:46:55;;;;;;;6.13;2.85;;;;;;;14.77;93.78;100147.81;5001938;28;20123;-82
2021/08/07 20:49:21;;;;;;;6.90;2.70;;;;;;;14.81;93.66;100150.44;4999624;28;20025;-84
2021/08/07 20:51:46;;;;;;;4.72;2.58;;;;;;;14.86;93.59;100160.09;4998659;28;20408;-84
2021/08/07 20:54:12;;;;;;;13.75;3.05;;;;;;;14.90;93.36;100157.38;4996723;28;20031;-82
2021/08/07 20:56:41;;;;;;;3.53;2.97;;;;;;;14.92;93.12;100160.91;4997120;28;20026;-77
2021/08/07 20:59:08;;;;;;;4.43;2.58;;;;;;;14.95;93.28;100163.50;4997872;28;20050;-80
2021/08/07 21:01:38;;;;;;;8.10;3.33;;;;;;;14.97;93.44;100160.84;4997335;28;20109;-78
2021/08/07 21:04:04;;;;;;;4.90;3.10;;;;;;;14.98;93.45;100155.50;4996679;28;20034;-81
2021/08/07 21:06:33;;;;;;;6.15;3.05;;;;;;;14.99;93.41;100159.91;4996133;28;20018;-82
2021/08/07 21:08:59;;;;;;;5.07;3.25;;;;;;;14.99;93.40;100154.63;4995488;28;20038;-79
2021/08/07 21:11:24;;;;;;;5.78;2.85;;;;;;;14.98;93.61;100155.50;4995970;28;20477;-84
2021/08/07 21:13:50;;;;;;;6.22;2.72;;;;;;;14.99;93.78;100151.97;4996741;28;20114;-81
2021/08/07 21:16:15;;;;;;;10.00;3.00;;;;;;;15.00;93.33;100151.09;4996865;28;20033;-79
2021/08/07 21:18:41;;;;;;;4.68;2.60;;;;;;;14.98;93.19;100149.34;5028703;28;20147;-83
2021/08/07 21:21:07;;;;;;;7.55;2.53;;;;;;;14.96;93.19;100146.72;5005823;28;20363;-86
2021/08/07 21:23:34;;;;;;;7.35;2.85;;;;;;;14.96;93.60;100152.03;4996264;28;20022;-80
2021/08/07 21:26:02;;;;;;;6.70;2.72;;;;;;;14.90;93.49;100149.44;4995302;28;20030;-86
2021/08/07 21:28:27;;;;;;;4.68;2.72;;;;;;;14.89;93.60;100149.47;4994449;28;20037;-78
2021/08/07 21:31:01;;;;;;;6.72;2.97;;;;;;;14.86;93.84;100149.50;4977228;28;20027;-80
2021/08/07 21:33:29;;;;;;;4.85;3.00;;;;;;;14.83;93.86;100148.63;4995381;28;20037;-82
2021/08/07 21:35:55;;;;;;;7.40;2.50;;;;;;;14.81;93.44;100137.19;4997184;28;20490;-82
2021/08/07 21:38:25;;;;;;;6.82;2.67;;;;;;;14.81;93.54;100139.84;5006588;28;20041;-84
2021/08/07 21:41:11;;;;;;;11.20;2.97;;;;;;;14.80;93.44;100140.72;4999238;28;20029;-79
2021/08/07 21:44:10;;;;;;;4.03;2.90;;;;;;;14.84;93.68;100134.50;5015412;28;20052;-82
2021/08/07 21:46:36;;;;;;;4.28;2.70;;;;;;;14.85;93.24;100151.25;5015586;28;20443;-80
2021/08/07 21:49:03;;;;;;;4.20;2.20;;;;;;;14.87;92.75;100144.19;5018027;28;20022;-79
2021/08/07 21:51:30;;;;;;;5.35;2.13;;;;;;;14.92;92.85;100154.72;5018361;28;20057;-80
2021/08/07 21:53:55;;;;;;;5.13;2.35;;;;;;;14.95;93.30;100149.41;4990234;28;20081;-80
2021/08/07 21:56:21;;;;;;;5.10;2.17;;;;;;;14.96;93.44;100154.69;4998552;28;20026;-80
2021/08/07 21:58:46;;;;;;;4.22;2.10;;;;;;;14.99;93.54;100146.69;5003035;28;20022;-80
2021/08/07 22:01:12;;;;;;;7.22;2.13;;;;;;;15.01;93.00;100133.41;5004087;28;20279;-80
2021/08/07 22:03:37;;;;;;;4.85;2.90;;;;;;;15.04;93.50;100138.66;5011264;28;20455;-79
2021/08/07 22:06:03;;;;;;;9.52;3.55;;;;;;;15.05;93.67;100135.13;5003063;28;20081;-80
2021/08/07 22:08:28;;;;;;;8.98;2.85;;;;;;;15.06;93.91;100141.31;5009413;28;20022;-78
2021/08/07 22:10:54;;;;;;;4.32;3.47;;;;;;;15.02;94.48;100137.81;5002135;28;20026;-80
2021/08/07 22:13:20;;;;;;;5.03;3.60;;;;;;;15.01;94.70;100138.69;4999632;28;20038;-81
2021/08/07 22:15:47;;;;;;;7.70;3.70;;;;;;;14.97;94.94;100137.84;4999514;28;20045;-80
2021/08/07 22:18:13;;;;;;;8.27;5.65;;;;;;;14.96;95.23;100140.53;5004014;28;20040;-82
2021/08/07 22:20:59;;;;;;;12.63;5.93;;;;;;;14.96;95.52;100127.28;5000482;28;20109;-84
2021/08/07 22:23:44;;;;;;;10.07;6.00;;;;;;;14.92;95.95;100136.16;4994068;28;20101;-80
2021/08/07 22:26:09;;;;;;;11.13;5.80;;;;;;;14.91;96.43;100137.09;5011963;28;20034;-83
2021/08/07 22:28:55;;;;;;;10.30;6.57;;;;;;;14.90;96.72;100135.31;5014339;28;20498;-83
2021/08/07 22:31:23;;;;;;;7.65;5.75;;;;;;;14.90;96.89;100125.59;5012702;28;20040;-80
2021/08/07 22:33:48;;;;;;;9.23;6.63;;;;;;;14.91;97.12;100131.78;4996061;28;20097;-82
2021/08/07 22:36:14;;;;;;;10.23;6.10;;;;;;;14.91;97.11;100121.19;5010232;28;20511;-82
2021/08/07 22:38:39;;;;;;;10.93;7.03;;;;;;;14.93;97.09;100129.97;5015380;28;20033;-85
2021/08/07 22:41:07;;;;;;;14.10;7.30;;;;;;;14.95;96.94;100128.22;5014844;28;20084;-81
2021/08/07 22:43:32;;;;;;;10.43;7.10;;;;;;;14.96;97.04;100124.63;5014941;28;20045;-79
2021/08/07 22:45:58;;;;;;;8.55;7.15;;;;;;;14.96;96.90;100114.94;5001616;28;20038;-78
2021/08/07 22:48:23;;;;;;;13.35;9.13;;;;;;;14.94;97.29;100115.84;4995224;28;20026;-82
2021/08/07 22:50:48;;;;;;;20.70;9.50;;;;;;;14.91;97.44;100116.75;4995241;28;20030;-77
2021/08/07 22:53:14;;;;;;;16.45;10.10;;;;;;;14.93;97.49;100119.38;4995577;28;20029;-80
2021/08/07 22:55:40;;;;;;;15.80;10.38;;;;;;;14.93;97.50;100116.75;4999396;28;20109;-78
2021/08/07 22:58:05;;;;;;;19.40;11.70;;;;;;;14.95;97.83;100117.59;5006184;28;20029;-85
2021/08/07 23:00:30;;;;;;;14.93;10.75;;;;;;;14.98;98.18;100118.41;5013244;28;20038;-82
2021/08/07 23:03:16;;;;;;;19.58;11.18;;;;;;;14.99;98.13;100119.31;5014130;28;20025;-81
2021/08/07 23:05:41;;;;;;;26.00;11.23;;;;;;;15.02;98.10;100119.28;5012506;28;20046;-81
2021/08/07 23:08:07;;;;;;;19.25;11.65;;;;;;;15.05;98.08;100124.53;5014587;28;20026;-77
2021/08/07 23:10:32;;;;;;;20.33;11.10;;;;;;;15.05;97.86;100124.53;5014148;28;20420;-82
2021/08/07 23:12:58;;;;;;;22.77;10.15;;;;;;;15.06;98.02;100126.28;5014308;28;20028;-82
2021/08/07 23:15:26;;;;;;;18.10;10.15;;;;;;;15.08;97.99;100128.91;5007830;28;20034;-79
2021/08/07 23:17:52;;;;;;;16.23;9.00;;;;;;;15.12;97.93;100128.81;4995544;28;20454;-81
2021/08/07 23:20:17;;;;;;;15.25;7.72;;;;;;;15.11;97.96;100132.41;4995185;28;20053;-84
2021/08/07 23:22:43;;;;;;;11.32;7.88;;;;;;;15.14;97.88;100129.69;4995438;28;20027;-85
2021/08/07 23:25:08;;;;;;;13.88;7.82;;;;;;;15.14;97.69;100140.28;4981382;28;20034;-81
2021/08/07 23:27:34;;;;;;;17.58;8.02;;;;;;;15.09;97.43;100142.13;5014092;28;20373;-80
2021/08/07 23:30:00;;;;;;;13.15;6.82;;;;;;;15.07;97.24;100149.22;5013814;28;20145;-82
2021/08/07 23:32:26;;;;;;;17.58;7.30;;;;;;;15.01;97.25;100154.59;5014341;28;20026;-85
2021/08/07 23:34:51;;;;;;;15.43;7.72;;;;;;;14.96;97.34;100157.31;5013652;28;20037;-82
2021/08/07 23:37:17;;;;;;;23.70;7.75;;;;;;;14.96;97.47;100162.63;4994998;28;20030;-84
2021/08/07 23:40:03;;;;;;;17.15;6.90;;;;;;;14.96;97.46;100162.63;4995171;28;20102;-83
2021/08/07 23:42:28;;;;;;;18.90;7.47;;;;;;;14.92;97.65;100165.31;4995310;28;20089;-80
2021/08/07 23:44:54;;;;;;;15.80;6.47;;;;;;;14.88;97.33;100166.25;4995008;28;20031;-83
2021/08/07 23:47:19;;;;;;;22.85;6.90;;;;;;;14.84;97.73;100163.63;4996491;28;20474;-81
2021/08/07 23:49:45;;;;;;;18.05;6.68;;;;;;;14.79;97.72;100157.50;5012619;28;20489;-83
2021/08/07 23:52:30;;;;;;;25.23;7.82;;;;;;;14.79;97.75;100160.16;5012345;28;20124;-82
2021/08/07 23:54:55;;;;;;;16.92;7.10;;;;;;;14.76;97.97;100162.84;5012384;28;20084;-82
2021/08/07 23:57:21;;;;;;;19.63;7.63;;;;;;;14.76;97.80;100156.66;5013196;28;20424;-78
2021/08/07 23:59:46;;;;;;;17.73;6.70;;;;;;;14.78;98.11;100163.69;5013277;28;20025;-84
